Thunder radar more information blitzortung!


Radar de pluja more information rain snow radar


Visita la nostra xarxa de llocs de meteo:

Template documentation
and downloads

And another site



No particular awareness of the weather is required.    There are no Weather-warnings

Pagina Historial Weather Underground text

Diari Resum Juny 3, 2016 Unitats:  Mètric    Imperial   Tant
« Previous Dia
SegĂźent Dia »
Diari Setmana Mensual Anual Personalitzada
  Maxima: Minima: Media:
Temperatura: 28.7 °C 12.3 °C 22.4 °C
Punt de rosada: 14.7 °C 3.7 °C 8.8 °C
Humitat: 80 % 27 % 44 %
Wind Speed: 22.2 km/h 0.0 km/h 7 km/h
RĂ fegues de vent: 24.1 km/h - -
Vent:- - SW
Pression baro: 1013.8 hPa 1009.0 hPa -
Precipitacions: 0.0 mm    
Historical Graphs
 
 
Dades de taula per Juny 3, 2016
Temps Temperatura Punt de rosada Pression baro Vent Wind Speed RĂ fegues de vent Humitat Rainfall Rate (Hourly)
00:02 17.5 °C 9.7 °C 1012.8 hPa NNE 3.7 km/h 3.9 km/h 60 % 0.0 mm
00:05 13.7 °C 9.6 °C 1012.8 hPa Calm     76 % 0.0 mm
00:07 17.4 °C 9.8 °C 1012.8 hPa NE 5.8 km/h 5.8 km/h 61 % 0.0 mm
00:15 13.7 °C 9.7 °C 1012.8 hPa Calm     77 % 0.0 mm
00:25 13.5 °C 9.3 °C 1013.8 hPa Calm     76 % 0.0 mm
00:35 13.3 °C 9.3 °C 1012.8 hPa Calm     77 % 0.0 mm
00:45 13.2 °C 9.3 °C 1012.8 hPa Calm     77 % 0.0 mm
01:05 12.9 °C 9.2 °C 1013.8 hPa Calm     78 % 0.0 mm
01:15 12.7 °C 8.6 °C 1013.8 hPa SSE 1.6 km/h 3.2 km/h 76 % 0.0 mm
01:25 12.5 °C 8.6 °C 1013.8 hPa SW 3.2 km/h 3.2 km/h 77 % 0.0 mm
01:35 12.3 °C 8.8 °C 1013.8 hPa Calm   3.2 km/h 79 % 0.0 mm
01:45 12.4 °C 9.1 °C 1013.8 hPa Calm     80 % 0.0 mm
01:55 12.7 °C 9.3 °C 1013.8 hPa Calm     80 % 0.0 mm
02:05 13.1 °C 9.7 °C 1012.8 hPa Calm   1.6 km/h 80 % 0.0 mm
02:15 13.6 °C 10.0 °C 1012.8 hPa Calm   3.2 km/h 79 % 0.0 mm
02:25 14.1 °C 10.5 °C 1013.8 hPa ENE 1.6 km/h 1.6 km/h 79 % 0.0 mm
02:35 14.6 °C 10.8 °C 1013.8 hPa ENE 1.6 km/h 3.2 km/h 78 % 0.0 mm
02:45 14.7 °C 10.5 °C 1013.8 hPa ENE 1.6 km/h 3.2 km/h 76 % 0.0 mm
02:55 15.0 °C 10.8 °C 1013.8 hPa ESE 3.2 km/h 3.2 km/h 76 % 0.0 mm
03:05 14.6 °C 10.4 °C 1013.8 hPa SW 1.6 km/h 3.2 km/h 76 % 0.0 mm
03:15 15.1 °C 10.9 °C 1013.8 hPa SW 1.6 km/h 3.2 km/h 76 % 0.0 mm
03:25 15.6 °C 11.2 °C 1013.8 hPa SSW 3.2 km/h 3.2 km/h 75 % 0.0 mm
03:35 16.4 °C 11.9 °C 1013.8 hPa SSW 1.6 km/h 3.2 km/h 75 % 0.0 mm
03:45 16.9 °C 12.0 °C 1013.8 hPa SSW 1.6 km/h 1.6 km/h 73 % 0.0 mm
03:55 17.5 °C 12.2 °C 1013.8 hPa Calm   4.8 km/h 71 % 0.0 mm
04:05 18.2 °C 12.6 °C 1013.8 hPa SSW 1.6 km/h 3.2 km/h 70 % 0.0 mm
04:15 18.2 °C 12.4 °C 1013.8 hPa SW 4.8 km/h 6.4 km/h 69 % 0.0 mm
04:25 18.6 °C 12.8 °C 1013.8 hPa WSW 1.6 km/h 4.8 km/h 69 % 0.0 mm
04:35 19.2 °C 12.9 °C 1013.8 hPa SW 3.2 km/h 6.4 km/h 67 % 0.0 mm
04:45 19.9 °C 13.1 °C 1013.8 hPa SW 4.8 km/h 6.4 km/h 65 % 0.0 mm
04:55 19.9 °C 13.1 °C 1013.8 hPa SSW 3.2 km/h 6.4 km/h 65 % 0.0 mm
05:05 20.0 °C 12.7 °C 1013.8 hPa SW 4.8 km/h 8.0 km/h 63 % 0.0 mm
05:15 20.4 °C 12.6 °C 1013.8 hPa SW 8.0 km/h 9.7 km/h 61 % 0.0 mm
05:25 21.0 °C 13.2 °C 1013.8 hPa SW 1.6 km/h 8.0 km/h 61 % 0.0 mm
05:35 21.3 °C 12.9 °C 1013.8 hPa WSW 3.2 km/h 8.0 km/h 59 % 0.0 mm
05:45 21.7 °C 12.6 °C 1013.8 hPa WSW 4.8 km/h 6.4 km/h 56 % 0.0 mm
10:54 22.1 °C 12.3 °C 1013.8 hPa SW 7.4 km/h 7.4 km/h 54 % 0.0 mm
10:59 22.2 °C 12.7 °C 1013.8 hPa SE 7.4 km/h 7.4 km/h 55 % 0.0 mm
11:04 22.9 °C 13.4 °C 1013.8 hPa WSW 3.7 km/h 3.7 km/h 55 % 0.0 mm
11:09 22.7 °C 12.9 °C 1013.8 hPa South 9.3 km/h 9.3 km/h 54 % 0.0 mm
11:14 22.7 °C 12.9 °C 1013.8 hPa NNE 3.7 km/h 3.7 km/h 54 % 0.0 mm
11:19 22.9 °C 13.1 °C 1013.8 hPa WSW 9.3 km/h 9.3 km/h 54 % 0.0 mm
11:29 23.7 °C 12.9 °C 1013.8 hPa SW 7.4 km/h 7.4 km/h 51 % 0.0 mm
11:34 23.8 °C 13.1 °C 1013.8 hPa SW 7.4 km/h 7.4 km/h 51 % 0.0 mm
11:39 24.0 °C 13.2 °C 1013.8 hPa NW 6.4 km/h 6.4 km/h 51 % 0.0 mm
11:44 24.1 °C 13.3 °C 1013.8 hPa South 5.6 km/h 5.6 km/h 51 % 0.0 mm
11:49 24.1 °C 13.0 °C 1013.8 hPa West 7.4 km/h 7.4 km/h 50 % 0.0 mm
11:59 24.4 °C 13.0 °C 1013.8 hPa SW 9.3 km/h 9.3 km/h 49 % 0.0 mm
12:04 25.0 °C 13.2 °C 1013.8 hPa SW 7.4 km/h 7.4 km/h 48 % 0.0 mm
12:09 24.9 °C 13.1 °C 1013.8 hPa SW 5.6 km/h 5.6 km/h 48 % 0.0 mm
12:14 25.4 °C 13.3 °C 1013.8 hPa SSW 9.3 km/h 9.3 km/h 47 % 0.0 mm
12:19 25.6 °C 13.4 °C 1013.8 hPa SSW 7.4 km/h 7.4 km/h 47 % 0.0 mm
12:29 25.4 °C 12.9 °C 1013.8 hPa SW 9.3 km/h 9.3 km/h 46 % 0.0 mm
12:34 25.6 °C 13.1 °C 1012.8 hPa WSW 4.7 km/h 4.7 km/h 46 % 0.0 mm
12:39 26.1 °C 13.9 °C 1012.8 hPa West 5.6 km/h 5.6 km/h 47 % 0.0 mm
12:44 27.0 °C 14.1 °C 1012.8 hPa SE 5.6 km/h 5.6 km/h 45 % 0.0 mm
12:49 26.7 °C 14.1 °C 1012.8 hPa ESE 9.3 km/h 9.3 km/h 46 % 0.0 mm
12:54 26.6 °C 14.1 °C 1012.8 hPa NNE 9.3 km/h 9.3 km/h 46 % 0.0 mm
12:59 27.0 °C 14.1 °C 1012.8 hPa SW 11.1 km/h 11.1 km/h 45 % 0.0 mm
13:04 27.1 °C 13.8 °C 1011.7 hPa WSW 9.3 km/h 9.3 km/h 44 % 0.0 mm
13:09 27.3 °C 14.0 °C 1011.7 hPa SW 5.6 km/h 5.6 km/h 44 % 0.0 mm
13:14 27.5 °C 13.8 °C 1011.7 hPa SSW 9.3 km/h 9.3 km/h 43 % 0.0 mm
13:19 28.0 °C 14.6 °C 1011.7 hPa WSW 5.8 km/h 5.8 km/h 44 % 0.0 mm
13:24 27.5 °C 13.8 °C 1011.7 hPa SSE 11.1 km/h 11.1 km/h 43 % 0.0 mm
13:29 27.8 °C 13.7 °C 1011.7 hPa SSW 16.7 km/h 16.7 km/h 42 % 0.0 mm
13:34 27.7 °C 13.6 °C 1011.7 hPa SW 14.8 km/h 14.8 km/h 42 % 0.0 mm
13:39 27.7 °C 14.0 °C 1011.7 hPa SSW 13.0 km/h 13.0 km/h 43 % 0.0 mm
13:44 28.4 °C 14.6 °C 1011.7 hPa WSW 6.1 km/h 6.1 km/h 43 % 0.0 mm
13:49 28.5 °C 14.7 °C 1010.7 hPa South 5.8 km/h 5.8 km/h 43 % 0.0 mm
13:54 28.6 °C 14.4 °C 1010.7 hPa SW 12.2 km/h 12.2 km/h 42 % 0.0 mm
13:59 28.0 °C 13.9 °C 1010.7 hPa SW 12.2 km/h 12.2 km/h 42 % 0.0 mm
14:04 27.5 °C 13.1 °C 1010.7 hPa WSW 13.0 km/h 13.0 km/h 41 % 0.0 mm
14:14 27.7 °C 13.3 °C 1010.7 hPa SSW 9.3 km/h 9.3 km/h 41 % 0.0 mm
14:24 28.1 °C 13.2 °C 1010.7 hPa SW 7.4 km/h 7.4 km/h 40 % 0.0 mm
14:29 28.7 °C 13.8 °C 1010.7 hPa SW 3.7 km/h 6.4 km/h 40 % 0.0 mm
14:34 27.9 °C 12.7 °C 1010.7 hPa SW 11.1 km/h 11.1 km/h 39 % 0.0 mm
14:39 27.6 °C 12.4 °C 1010.7 hPa SSW 15.6 km/h 15.6 km/h 39 % 0.0 mm
14:44 27.6 °C 12.4 °C 1010.7 hPa SSW 9.3 km/h 9.3 km/h 39 % 0.0 mm
14:49 27.8 °C 12.6 °C 1010.0 hPa SW 9.5 km/h 9.5 km/h 39 % 0.0 mm
14:54 27.8 °C 11.8 °C 1010.0 hPa SW 11.1 km/h 11.1 km/h 37 % 0.0 mm
14:59 27.9 °C 11.4 °C 1010.0 hPa SSW 9.3 km/h 9.3 km/h 36 % 0.0 mm
15:04 27.8 °C 10.9 °C 1010.7 hPa WSW 20.4 km/h 20.4 km/h 35 % 0.0 mm
15:09 27.9 °C 11.0 °C 1010.7 hPa SW 11.1 km/h 11.1 km/h 35 % 0.0 mm
15:14 27.9 °C 10.6 °C 1010.7 hPa South 16.7 km/h 16.7 km/h 34 % 0.0 mm
15:20 27.2 °C 10.0 °C 1010.0 hPa SW 8.0 km/h 20.9 km/h 34 % 0.0 mm
15:25 26.7 °C 9.1 °C 1010.0 hPa SW 12.9 km/h 20.9 km/h 33 % 0.0 mm
15:30 26.4 °C 9.7 °C 1010.0 hPa SW 3.2 km/h 12.9 km/h 35 % 0.0 mm
15:35 26.1 °C 9.8 °C 1010.0 hPa SSW 3.2 km/h 17.7 km/h 36 % 0.0 mm
15:40 25.8 °C 10.4 °C 1010.0 hPa SW 13.7 km/h 13.7 km/h 38 % 0.0 mm
15:45 25.4 °C 10.1 °C 1010.0 hPa SW 4.8 km/h 16.1 km/h 38 % 0.0 mm
15:50 25.9 °C 10.5 °C 1010.0 hPa West 11.4 km/h 11.4 km/h 38 % 0.0 mm
15:55 25.8 °C 10.4 °C 1010.0 hPa SW 4.8 km/h 16.1 km/h 38 % 0.0 mm
16:00 25.8 °C 9.6 °C 1010.0 hPa SW 9.7 km/h 16.1 km/h 36 % 0.0 mm
16:05 26.2 °C 10.0 °C 1010.0 hPa SW 11.3 km/h 16.1 km/h 36 % 0.0 mm
16:10 26.4 °C 9.7 °C 1010.0 hPa SW 9.7 km/h 19.3 km/h 35 % 0.0 mm
16:15 26.3 °C 8.7 °C 1010.0 hPa SW 11.3 km/h 22.5 km/h 33 % 0.0 mm
16:20 26.4 °C 9.2 °C 1010.0 hPa SW 8.0 km/h 17.7 km/h 34 % 0.0 mm
16:25 26.6 °C 8.9 °C 1010.0 hPa SW 11.3 km/h 16.1 km/h 33 % 0.0 mm
16:30 26.5 °C 8.4 °C 1010.0 hPa SW 12.9 km/h 22.5 km/h 32 % 0.0 mm
16:35 26.9 °C 9.3 °C 1010.0 hPa SW 8.0 km/h 19.3 km/h 33 % 0.0 mm
16:40 26.9 °C 8.9 °C 1010.0 hPa SW 11.3 km/h 19.3 km/h 32 % 0.0 mm
16:45 26.8 °C 8.7 °C 1010.0 hPa WSW 11.1 km/h 11.1 km/h 32 % 0.0 mm
16:50 26.7 °C 7.7 °C 1010.0 hPa WNW 17.2 km/h 17.2 km/h 30 % 0.0 mm
16:55 26.5 °C 7.0 °C 1010.0 hPa SW 12.9 km/h 20.9 km/h 29 % 0.0 mm
17:00 27.1 °C 7.5 °C 1010.0 hPa SW 4.8 km/h 12.9 km/h 29 % 0.0 mm
17:05 26.8 °C 6.8 °C 1010.0 hPa SW 8.0 km/h 19.3 km/h 28 % 0.0 mm
17:10 26.4 °C 6.9 °C 1010.0 hPa SW 9.7 km/h 19.3 km/h 29 % 0.0 mm
17:15 26.4 °C 7.4 °C 1010.0 hPa SW 8.0 km/h 12.9 km/h 30 % 0.0 mm
17:20 26.9 °C 7.8 °C 1009.0 hPa SW 4.8 km/h 9.7 km/h 30 % 0.0 mm
17:25 26.7 °C 6.7 °C 1009.0 hPa SW 11.3 km/h 17.7 km/h 28 % 0.0 mm
17:30 26.4 °C 6.4 °C 1009.0 hPa West 22.2 km/h 22.2 km/h 28 % 0.0 mm
17:35 26.1 °C 5.6 °C 1009.0 hPa SW 12.9 km/h 24.1 km/h 27 % 0.0 mm
17:40 26.0 °C 5.6 °C 1009.0 hPa SW 15.8 km/h 15.8 km/h 27 % 0.0 mm
17:45 26.2 °C 6.2 °C 1009.0 hPa SW 16.7 km/h 16.7 km/h 28 % 0.0 mm
17:50 25.8 °C 5.9 °C 1009.0 hPa WSW 19.0 km/h 19.0 km/h 28 % 0.0 mm
17:55 25.5 °C 5.7 °C 1009.0 hPa SSW 16.7 km/h 16.7 km/h 28 % 0.0 mm
18:00 25.1 °C 5.3 °C 1009.0 hPa SW 22.2 km/h 22.2 km/h 28 % 0.0 mm
18:05 24.9 °C 5.1 °C 1009.0 hPa WSW 20.4 km/h 20.4 km/h 28 % 0.0 mm
18:10 24.8 °C 5.6 °C 1009.0 hPa SW 9.7 km/h 20.9 km/h 29 % 0.0 mm
18:15 24.8 °C 5.6 °C 1009.0 hPa SW 11.3 km/h 16.1 km/h 29 % 0.0 mm
18:20 25.0 °C 5.2 °C 1009.0 hPa WSW 11.1 km/h 11.1 km/h 28 % 0.0 mm
18:25 25.2 °C 5.9 °C 1009.0 hPa SSW 9.3 km/h 9.3 km/h 29 % 0.0 mm
18:30 24.9 °C 5.6 °C 1009.0 hPa West 11.1 km/h 11.1 km/h 29 % 0.0 mm
18:40 24.8 °C 5.6 °C 1009.0 hPa SW 8.0 km/h 11.3 km/h 29 % 0.0 mm
18:45 24.4 °C 5.2 °C 1009.0 hPa SW 8.0 km/h 20.9 km/h 29 % 0.0 mm
18:50 24.0 °C 4.8 °C 1009.0 hPa SW 14.5 km/h 20.9 km/h 29 % 0.0 mm
18:55 23.9 °C 4.7 °C 1009.0 hPa SW 11.3 km/h 22.5 km/h 29 % 0.0 mm
19:00 23.8 °C 5.2 °C 1009.0 hPa SW 8.0 km/h 14.5 km/h 30 % 0.0 mm
19:05 23.5 °C 5.4 °C 1010.0 hPa SW 8.0 km/h 14.5 km/h 31 % 0.0 mm
19:10 23.2 °C 5.1 °C 1010.0 hPa SW 3.2 km/h 12.9 km/h 31 % 0.0 mm
19:15 22.9 °C 5.8 °C 1010.0 hPa SSW 5.6 km/h 5.6 km/h 33 % 0.0 mm
19:20 22.9 °C 5.8 °C 1010.0 hPa SW 11.1 km/h 11.1 km/h 33 % 0.0 mm
19:25 22.7 °C 6.0 °C 1010.0 hPa SSW 11.1 km/h 11.1 km/h 34 % 0.0 mm
19:30 22.7 °C 6.0 °C 1010.0 hPa SW 7.4 km/h 7.4 km/h 34 % 0.0 mm
19:35 22.8 °C 6.1 °C 1010.0 hPa SW 13.0 km/h 13.0 km/h 34 % 0.0 mm
19:40 22.8 °C 6.1 °C 1010.0 hPa SW 6.9 km/h 6.9 km/h 34 % 0.0 mm
19:45 22.7 °C 5.6 °C 1010.0 hPa SW 13.0 km/h 13.0 km/h 33 % 0.0 mm
19:50 22.7 °C 5.6 °C 1010.0 hPa SW 5.6 km/h 5.6 km/h 33 % 0.0 mm
19:55 22.5 °C 5.4 °C 1010.0 hPa SW 14.8 km/h 14.8 km/h 33 % 0.0 mm
20:00 22.5 °C 5.4 °C 1010.0 hPa SW 5.8 km/h 5.8 km/h 33 % 0.0 mm
20:05 22.4 °C 5.3 °C 1010.0 hPa South 9.3 km/h 9.3 km/h 33 % 0.0 mm
20:10 22.4 °C 5.3 °C 1010.0 hPa SW 3.2 km/h 8.0 km/h 33 % 0.0 mm
20:15 22.1 °C 5.1 °C 1010.0 hPa SSW 5.6 km/h 5.6 km/h 33 % 0.0 mm
20:20 22.0 °C 5.4 °C 1010.0 hPa WSW 9.3 km/h 9.3 km/h 34 % 0.0 mm
20:25 21.8 °C 5.2 °C 1010.0 hPa SW 9.3 km/h 9.3 km/h 34 % 0.0 mm
20:30 21.6 °C 5.1 °C 1010.0 hPa SW 4.8 km/h 9.7 km/h 34 % 0.0 mm
20:35 21.5 °C 4.9 °C 1010.0 hPa SW 3.2 km/h 8.0 km/h 34 % 0.0 mm
20:40 21.3 °C 4.4 °C 1010.0 hPa WSW 3.9 km/h 3.9 km/h 33 % 0.0 mm
20:45 21.2 °C 4.3 °C 1010.0 hPa SW 7.4 km/h 7.4 km/h 33 % 0.0 mm
20:50 21.0 °C 3.7 °C 1010.0 hPa SW 5.6 km/h 5.6 km/h 32 % 0.0 mm
20:55 20.9 °C 4.0 °C 1010.0 hPa SW 5.6 km/h 5.6 km/h 33 % 0.0 mm
21:00 20.8 °C 3.9 °C 1010.0 hPa SW 7.4 km/h 7.4 km/h 33 % 0.0 mm
21:05 20.8 °C 3.9 °C 1010.7 hPa WSW 5.6 km/h 5.6 km/h 33 % 0.0 mm
21:10 20.6 °C 4.2 °C 1010.7 hPa WSW 5.6 km/h 5.6 km/h 34 % 0.0 mm
21:15 20.5 °C 4.1 °C 1010.7 hPa West 5.6 km/h 5.6 km/h 34 % 0.0 mm
21:20 20.4 °C 4.0 °C 1010.0 hPa SW 4.8 km/h 9.7 km/h 34 % 0.0 mm
21:25 20.2 °C 3.8 °C 1010.0 hPa WSW 3.2 km/h 6.4 km/h 34 % 0.0 mm
21:30 20.1 °C 3.7 °C 1010.0 hPa SW 3.7 km/h 3.7 km/h 34 % 0.0 mm
21:35 20.0 °C 3.7 °C 1010.0 hPa SW 5.6 km/h 5.6 km/h 34 % 0.0 mm
21:40 19.9 °C 4.0 °C 1010.0 hPa WSW 1.9 km/h 1.9 km/h 35 % 0.0 mm
21:45 19.8 °C 3.9 °C 1010.0 hPa WSW 1.9 km/h   35 % 0.0 mm
21:55 19.7 °C 4.2 °C 1010.7 hPa Calm     36 % 0.0 mm
22:00 19.6 °C 4.1 °C 1010.7 hPa WSW 3.7 km/h 3.7 km/h 36 % 0.0 mm
22:10 19.3 °C 4.2 °C 1010.7 hPa Calm   1.6 km/h 37 % 0.0 mm
22:15 19.2 °C 4.5 °C 1010.7 hPa Calm     38 % 0.0 mm
22:20 19.2 °C 4.5 °C 1010.7 hPa Calm     38 % 0.0 mm
22:25 19.1 °C 4.4 °C 1010.7 hPa Calm   3.2 km/h 38 % 0.0 mm
22:30 18.5 °C 4.3 °C 1010.7 hPa SSW 7.4 km/h 7.4 km/h 39 % 0.0 mm
22:35 18.2 °C 4.0 °C 1010.7 hPa SW 3.2 km/h 4.8 km/h 39 % 0.0 mm
22:40 18.0 °C 4.2 °C 1010.7 hPa SW 3.2 km/h 8.0 km/h 40 % 0.0 mm
22:50 18.0 °C 4.6 °C 1011.7 hPa SW 5.6 km/h 5.6 km/h 41 % 0.0 mm
22:55 18.0 °C 4.6 °C 1011.7 hPa WSW 1.6 km/h 3.2 km/h 41 % 0.0 mm
23:00 18.0 °C 4.6 °C 1011.7 hPa WSW 5.6 km/h 5.6 km/h 41 % 0.0 mm
23:05 18.0 °C 4.9 °C 1011.7 hPa WSW 1.6 km/h 3.2 km/h 42 % 0.0 mm
23:10 17.9 °C 5.1 °C 1011.7 hPa Calm     43 % 0.0 mm
23:15 17.9 °C 5.1 °C 1011.7 hPa NNW 1.9 km/h   43 % 0.0 mm
23:20 18.0 °C 4.9 °C 1011.7 hPa NW 1.6 km/h 4.8 km/h 42 % 0.0 mm
23:30 18.1 °C 5.0 °C 1011.7 hPa Calm   1.6 km/h 42 % 0.0 mm
23:35 18.0 °C 4.9 °C 1011.7 hPa WSW 3.7 km/h 3.7 km/h 42 % 0.0 mm
23:40 17.9 °C 5.1 °C 1011.7 hPa SSW 3.7 km/h 3.7 km/h 43 % 0.0 mm
23:45 17.7 °C 4.9 °C 1011.7 hPa SW 3.7 km/h 3.7 km/h 43 % 0.0 mm
23:50 17.6 °C 4.9 °C 1011.7 hPa West 3.7 km/h 3.7 km/h 43 % 0.0 mm
23:55 17.7 °C 5.3 °C 1011.7 hPa West 1.9 km/h 1.9 km/h 44 % 0.0 mm
Meteo Sesrovires
Elogis d' Weather Underground - 3.5 mb

Guio original per  Jim McMurry - jmcmurry@mwt.net Adaptat per a la plantilla per  Wim van der Kuil - Leuven-Template.eu

Trobareu la nostra informacio del temps tambe a:

Weather Underground

AWEKAS